sensor_id;sensor_type;location;lat;lon;timestamp;pressure;altitude;pressure_sealevel;temperature;humidity
61676;BME280;47574;52.090;5.244;2023-03-20T00:00:33;101928.0;;;14.66;54.97
61676;BME280;47574;52.090;5.244;2023-03-20T00:02:21;101931.0;;;14.47;55.45
61676;BME280;47574;52.090;5.244;2023-03-20T00:03:58;101933.0;;;14.63;55.1
61676;BME280;47574;52.090;5.244;2023-03-20T00:05:35;101923.0;;;14.85;54.64
61676;BME280;47574;52.090;5.244;2023-03-20T00:08:50;101930.0;;;14.83;54.63
61676;BME280;47574;52.090;5.244;2023-03-20T00:10:34;101938.0;;;14.37;55.37
61676;BME280;47574;52.090;5.244;2023-03-20T00:12:14;101933.0;;;14.61;55.15
61676;BME280;47574;52.090;5.244;2023-03-20T00:13:55;101930.0;;;14.79;54.94
61676;BME280;47574;52.090;5.244;2023-03-20T00:17:14;101932.0;;;14.83;54.91
61676;BME280;47574;52.090;5.244;2023-03-20T00:18:53;101930.0;;;14.71;54.99
61676;BME280;47574;52.090;5.244;2023-03-20T00:20:30;101925.0;;;14.84;54.84
61676;BME280;47574;52.090;5.244;2023-03-20T00:22:07;101920.0;;;14.77;54.97
61676;BME280;47574;52.090;5.244;2023-03-20T00:25:23;101921.0;;;14.82;55.01
61676;BME280;47574;52.090;5.244;2023-03-20T00:27:00;101921.0;;;14.49;55.62
61676;BME280;47574;52.090;5.244;2023-03-20T00:28:38;101915.0;;;14.69;55.3
61676;BME280;47574;52.090;5.244;2023-03-20T00:31:58;101916.0;;;14.67;55.09
61676;BME280;47574;52.090;5.244;2023-03-20T00:33:34;101910.0;;;14.98;54.78
61676;BME280;47574;52.090;5.244;2023-03-20T00:35:22;101909.0;;;14.7;54.85
61676;BME280;47574;52.090;5.244;2023-03-20T00:36:59;101908.0;;;15.04;54.65
61676;BME280;47574;52.090;5.244;2023-03-20T00:40:12;101914.0;;;14.74;54.84
61676;BME280;47574;52.090;5.244;2023-03-20T00:41:50;101923.0;;;14.53;55.16
61676;BME280;47574;52.090;5.244;2023-03-20T00:43:28;101923.0;;;14.58;54.09
61676;BME280;47574;52.090;5.244;2023-03-20T00:45:07;101924.0;;;14.8;54.32
61676;BME280;47574;52.090;5.244;2023-03-20T00:48:29;101934.0;;;14.89;53.56
61676;BME280;47574;52.090;5.244;2023-03-20T00:50:13;101940.0;;;14.94;53.3
61676;BME280;47574;52.090;5.244;2023-03-20T00:51:51;101938.0;;;15.0;53.04
61676;BME280;47574;52.090;5.244;2023-03-20T00:53:27;101945.0;;;14.89;52.86
61676;BME280;47574;52.090;5.244;2023-03-20T00:56:42;101944.0;;;15.1;52.17
61676;BME280;47574;52.090;5.244;2023-03-20T00:58:20;101958.0;;;15.04;52.57
61676;BME280;47574;52.090;5.244;2023-03-20T00:59:58;101963.0;;;14.91;52.42
61676;BME280;47574;52.090;5.244;2023-03-20T01:03:15;101964.0;;;14.94;52.27
61676;BME280;47574;52.090;5.244;2023-03-20T01:04:54;101978.0;;;14.58;53.03
61676;BME280;47574;52.090;5.244;2023-03-20T01:06:31;101969.0;;;14.74;52.37
61676;BME280;47574;52.090;5.244;2023-03-20T01:08:16;101964.0;;;15.0;51.93
61676;BME280;47574;52.090;5.244;2023-03-20T01:11:31;101944.0;;;14.69;52.21
61676;BME280;47574;52.090;5.244;2023-03-20T01:13:15;101942.0;;;14.33;52.68
61676;BME280;47574;52.090;5.244;2023-03-20T01:14:56;101940.0;;;14.56;52.68
61676;BME280;47574;52.090;5.244;2023-03-20T01:16:33;101946.0;;;14.66;52.44
61676;BME280;47574;52.090;5.244;2023-03-20T01:19:48;101958.0;;;14.28;52.74
61676;BME280;47574;52.090;5.244;2023-03-20T01:21:25;101956.0;;;14.24;52.97
61676;BME280;47574;52.090;5.244;2023-03-20T01:23:01;101955.0;;;13.96;53.29
61676;BME280;47574;52.090;5.244;2023-03-20T01:26:20;101956.0;;;14.25;52.82
61676;BME280;47574;52.090;5.244;2023-03-20T01:27:59;101955.0;;;14.47;52.36
61676;BME280;47574;52.090;5.244;2023-03-20T01:29:36;101959.0;;;14.59;52.24
61676;BME280;47574;52.090;5.244;2023-03-20T01:31:14;101957.0;;;14.66;52.0
61676;BME280;47574;52.090;5.244;2023-03-20T01:34:29;101955.0;;;14.64;51.58
61676;BME280;47574;52.090;5.244;2023-03-20T01:36:08;101948.0;;;14.66;51.78
61676;BME280;47574;52.090;5.244;2023-03-20T01:37:45;101953.0;;;14.43;52.06
61676;BME280;47574;52.090;5.244;2023-03-20T01:39:27;101951.0;;;14.44;52.3
61676;BME280;47574;52.090;5.244;2023-03-20T01:42:48;101955.0;;;14.57;51.92
61676;BME280;47574;52.090;5.244;2023-03-20T01:44:27;101956.0;;;14.34;52.51
61676;BME280;47574;52.090;5.244;2023-03-20T01:46:14;101946.0;;;14.7;52.12
61676;BME280;47574;52.090;5.244;2023-03-20T01:47:54;101942.0;;;14.87;52.05
61676;BME280;47574;52.090;5.244;2023-03-20T01:52:11;101934.0;;;14.85;51.52
61676;BME280;47574;52.090;5.244;2023-03-20T01:55:28;101936.0;;;14.94;51.75
61676;BME280;47574;52.090;5.244;2023-03-20T01:57:09;101941.0;;;14.81;51.6
61676;BME280;47574;52.090;5.244;2023-03-20T01:58:51;101950.0;;;14.91;51.26
61676;BME280;47574;52.090;5.244;2023-03-20T02:00:31;101963.0;;;14.44;51.81
61676;BME280;47574;52.090;5.244;2023-03-20T02:03:52;101957.0;;;14.41;51.91
61676;BME280;47574;52.090;5.244;2023-03-20T02:05:29;101953.0;;;14.28;52.21
61676;BME280;47574;52.090;5.244;2023-03-20T02:07:07;101950.0;;;14.34;51.89
61676;BME280;47574;52.090;5.244;2023-03-20T02:08:47;101959.0;;;14.19;52.12
61676;BME280;47574;52.090;5.244;2023-03-20T02:12:02;101959.0;;;14.44;51.68
61676;BME280;47574;52.090;5.244;2023-03-20T02:13:39;101961.0;;;14.43;51.69
61676;BME280;47574;52.090;5.244;2023-03-20T02:15:16;101961.0;;;14.51;51.98
61676;BME280;47574;52.090;5.244;2023-03-20T02:18:30;101951.0;;;14.33;52.0
61676;BME280;47574;52.090;5.244;2023-03-20T02:20:15;101940.0;;;14.23;51.97
61676;BME280;47574;52.090;5.244;2023-03-20T02:22:43;101939.0;;;14.28;52.52
61676;BME280;47574;52.090;5.244;2023-03-20T02:25:32;101930.0;;;14.53;51.93
61676;BME280;47574;52.090;5.244;2023-03-20T02:26:27;101923.0;;;14.52;52.05
61676;BME280;47574;52.090;5.244;2023-03-20T02:28:32;101924.0;;;14.34;52.23
61676;BME280;47574;52.090;5.244;2023-03-20T02:30:58;101924.0;;;14.38;52.24
61676;BME280;47574;52.090;5.244;2023-03-20T02:33:25;101928.0;;;14.45;52.49
61676;BME280;47574;52.090;5.244;2023-03-20T02:35:54;101931.0;;;14.48;52.24
61676;BME280;47574;52.090;5.244;2023-03-20T02:40:14;101922.0;;;14.07;52.83
61676;BME280;47574;52.090;5.244;2023-03-20T02:43:44;101926.0;;;14.28;52.56
61676;BME280;47574;52.090;5.244;2023-03-20T02:45:31;101926.0;;;14.6;52.11
61676;BME280;47574;52.090;5.244;2023-03-20T02:47:12;101928.0;;;13.92;52.88
61676;BME280;47574;52.090;5.244;2023-03-20T02:48:56;101928.0;;;13.81;53.17
61676;BME280;47574;52.090;5.244;2023-03-20T02:50:43;101922.0;;;13.99;53.15
61676;BME280;47574;52.090;5.244;2023-03-20T02:54:13;101913.0;;;14.32;52.35
61676;BME280;47574;52.090;5.244;2023-03-20T02:56:03;101895.0;;;14.35;52.03
61676;BME280;47574;52.090;5.244;2023-03-20T02:57:49;101887.0;;;14.53;52.05
61676;BME280;47574;52.090;5.244;2023-03-20T02:59:34;101880.0;;;14.62;51.88
61676;BME280;47574;52.090;5.244;2023-03-20T03:01:20;101876.0;;;14.61;51.82
61676;BME280;47574;52.090;5.244;2023-03-20T03:04:48;101872.0;;;14.34;52.33
61676;BME280;47574;52.090;5.244;2023-03-20T03:06:29;101865.0;;;14.19;52.82
61676;BME280;47574;52.090;5.244;2023-03-20T03:08:07;101855.0;;;14.39;52.33
61676;BME280;47574;52.090;5.244;2023-03-20T03:09:49;101861.0;;;14.52;52.14
61676;BME280;47574;52.090;5.244;2023-03-20T03:11:29;101873.0;;;14.33;52.34
61676;BME280;47574;52.090;5.244;2023-03-20T03:14:52;101884.0;;;14.41;52.42
61676;BME280;47574;52.090;5.244;2023-03-20T03:16:32;101878.0;;;14.24;52.75
61676;BME280;47574;52.090;5.244;2023-03-20T03:18:15;101883.0;;;14.48;51.84
61676;BME280;47574;52.090;5.244;2023-03-20T03:19:57;101880.0;;;14.2;52.27
61676;BME280;47574;52.090;5.244;2023-03-20T03:23:21;101885.0;;;14.19;52.63
61676;BME280;47574;52.090;5.244;2023-03-20T03:25:03;101884.0;;;14.24;52.64
61676;BME280;47574;52.090;5.244;2023-03-20T03:26:40;101887.0;;;14.13;52.51
61676;BME280;47574;52.090;5.244;2023-03-20T03:28:22;101876.0;;;13.84;52.88
61676;BME280;47574;52.090;5.244;2023-03-20T03:31:46;101880.0;;;14.05;52.77
61676;BME280;47574;52.090;5.244;2023-03-20T03:33:27;101872.0;;;14.25;52.47
61676;BME280;47574;52.090;5.244;2023-03-20T03:35:06;101878.0;;;14.27;52.25
61676;BME280;47574;52.090;5.244;2023-03-20T03:36:54;101880.0;;;14.24;52.44
61676;BME280;47574;52.090;5.244;2023-03-20T03:40:28;101882.0;;;13.99;52.69
61676;BME280;47574;52.090;5.244;2023-03-20T03:42:14;101872.0;;;13.85;53.17
61676;BME280;47574;52.090;5.244;2023-03-20T03:44:04;101875.0;;;13.93;53.09
61676;BME280;47574;52.090;5.244;2023-03-20T03:45:51;101871.0;;;13.72;53.03
61676;BME280;47574;52.090;5.244;2023-03-20T03:47:33;101863.0;;;13.84;53.19
61676;BME280;47574;52.090;5.244;2023-03-20T03:49:14;101861.0;;;13.71;53.26
61676;BME280;47574;52.090;5.244;2023-03-20T03:52:36;101861.0;;;13.86;53.12
61676;BME280;47574;52.090;5.244;2023-03-20T03:54:17;101857.0;;;13.73;53.41
61676;BME280;47574;52.090;5.244;2023-03-20T03:55:58;101851.0;;;13.67;53.2
61676;BME280;47574;52.090;5.244;2023-03-20T03:57:40;101848.0;;;13.82;53.0
61676;BME280;47574;52.090;5.244;2023-03-20T04:01:04;101844.0;;;13.83;53.23
61676;BME280;47574;52.090;5.244;2023-03-20T04:02:44;101839.0;;;13.78;53.26
61676;BME280;47574;52.090;5.244;2023-03-20T04:04:24;101843.0;;;13.65;53.37
61676;BME280;47574;52.090;5.244;2023-03-20T04:06:04;101839.0;;;13.96;53.05
61676;BME280;47574;52.090;5.244;2023-03-20T04:09:20;101846.0;;;13.86;53.22
61676;BME280;47574;52.090;5.244;2023-03-20T04:10:57;101851.0;;;13.82;52.86
61676;BME280;47574;52.090;5.244;2023-03-20T04:12:35;101841.0;;;13.85;52.33
61676;BME280;47574;52.090;5.244;2023-03-20T04:14:13;101842.0;;;13.77;52.8
61676;BME280;47574;52.090;5.244;2023-03-20T04:17:27;101825.0;;;13.67;53.0
61676;BME280;47574;52.090;5.244;2023-03-20T04:19:04;101826.0;;;13.67;53.28
61676;BME280;47574;52.090;5.244;2023-03-20T04:20:40;101830.0;;;13.35;53.56
61676;BME280;47574;52.090;5.244;2023-03-20T04:23:54;101828.0;;;13.15;54.12
61676;BME280;47574;52.090;5.244;2023-03-20T04:25:31;101824.0;;;13.25;53.92
61676;BME280;47574;52.090;5.244;2023-03-20T04:27:07;101830.0;;;13.55;52.98
61676;BME280;47574;52.090;5.244;2023-03-20T04:30:19;101828.0;;;13.29;53.55
61676;BME280;47574;52.090;5.244;2023-03-20T04:31:56;101832.0;;;13.57;53.45
61676;BME280;47574;52.090;5.244;2023-03-20T04:33:33;101836.0;;;13.49;53.34
61676;BME280;47574;52.090;5.244;2023-03-20T04:35:09;101844.0;;;13.75;52.96
61676;BME280;47574;52.090;5.244;2023-03-20T04:38:24;101844.0;;;13.51;53.14
61676;BME280;47574;52.090;5.244;2023-03-20T04:40:01;101838.0;;;13.41;53.09
61676;BME280;47574;52.090;5.244;2023-03-20T04:41:38;101845.0;;;13.61;52.91
61676;BME280;47574;52.090;5.244;2023-03-20T04:44:51;101839.0;;;13.57;53.06
61676;BME280;47574;52.090;5.244;2023-03-20T04:46:28;101835.0;;;13.31;53.5
61676;BME280;47574;52.090;5.244;2023-03-20T04:48:05;101835.0;;;13.54;53.02
61676;BME280;47574;52.090;5.244;2023-03-20T04:51:18;101834.0;;;13.83;52.73
61676;BME280;47574;52.090;5.244;2023-03-20T04:52:55;101834.0;;;13.68;52.74
61676;BME280;47574;52.090;5.244;2023-03-20T04:54:32;101841.0;;;13.51;52.96
61676;BME280;47574;52.090;5.244;2023-03-20T04:56:09;101831.0;;;13.64;53.06
61676;BME280;47574;52.090;5.244;2023-03-20T04:59:22;101821.0;;;13.22;53.25
61676;BME280;47574;52.090;5.244;2023-03-20T05:00:58;101823.0;;;13.24;53.54
61676;BME280;47574;52.090;5.244;2023-03-20T05:02:34;101821.0;;;13.38;53.3
61676;BME280;47574;52.090;5.244;2023-03-20T05:05:46;101826.0;;;13.59;52.98
61676;BME280;47574;52.090;5.244;2023-03-20T05:07:23;101825.0;;;13.77;52.7
61676;BME280;47574;52.090;5.244;2023-03-20T05:08:59;101825.0;;;13.65;52.95
61676;BME280;47574;52.090;5.244;2023-03-20T05:12:12;101824.0;;;13.3;53.27
61676;BME280;47574;52.090;5.244;2023-03-20T05:13:48;101821.0;;;13.98;52.11
61676;BME280;47574;52.090;5.244;2023-03-20T05:15:25;101815.0;;;13.53;52.95
61676;BME280;47574;52.090;5.244;2023-03-20T05:17:01;101817.0;;;13.75;52.72
61676;BME280;47574;52.090;5.244;2023-03-20T05:20:14;101817.0;;;13.88;52.72
61676;BME280;47574;52.090;5.244;2023-03-20T05:21:51;101821.0;;;13.49;53.11
61676;BME280;47574;52.090;5.244;2023-03-20T05:23:27;101819.0;;;13.94;52.43
61676;BME280;47574;52.090;5.244;2023-03-20T05:26:40;101819.0;;;13.81;52.73
61676;BME280;47574;52.090;5.244;2023-03-20T05:28:17;101822.0;;;13.7;53.04
61676;BME280;47574;52.090;5.244;2023-03-20T05:29:53;101822.0;;;13.66;52.92
61676;BME280;47574;52.090;5.244;2023-03-20T05:33:06;101822.0;;;13.81;52.74
61676;BME280;47574;52.090;5.244;2023-03-20T05:34:42;101816.0;;;13.81;52.99
61676;BME280;47574;52.090;5.244;2023-03-20T05:36:18;101819.0;;;13.5;53.09
61676;BME280;47574;52.090;5.244;2023-03-20T05:37:54;101820.0;;;13.63;53.0
61676;BME280;47574;52.090;5.244;2023-03-20T05:41:06;101822.0;;;13.64;52.99
61676;BME280;47574;52.090;5.244;2023-03-20T05:42:43;101824.0;;;13.49;53.23
61676;BME280;47574;52.090;5.244;2023-03-20T05:44:20;101834.0;;;13.42;53.43
61676;BME280;47574;52.090;5.244;2023-03-20T05:47:32;101835.0;;;13.54;53.5
61676;BME280;47574;52.090;5.244;2023-03-20T05:49:08;101839.0;;;13.6;53.12
61676;BME280;47574;52.090;5.244;2023-03-20T05:50:44;101843.0;;;13.7;52.84
61676;BME280;47574;52.090;5.244;2023-03-20T05:53:57;101844.0;;;13.25;53.63
61676;BME280;47574;52.090;5.244;2023-03-20T05:55:33;101847.0;;;13.4;53.72
61676;BME280;47574;52.090;5.244;2023-03-20T05:57:09;101852.0;;;13.57;53.49
61676;BME280;47574;52.090;5.244;2023-03-20T06:00:22;101848.0;;;13.49;53.73
61676;BME280;47574;52.090;5.244;2023-03-20T06:07:14;101844.0;;;14.02;52.48
61676;BME280;47574;52.090;5.244;2023-03-20T06:10:32;101844.0;;;13.81;52.57
61676;BME280;47574;52.090;5.244;2023-03-20T06:12:08;101836.0;;;13.96;52.59
61676;BME280;47574;52.090;5.244;2023-03-20T06:13:44;101838.0;;;13.89;52.48
61676;BME280;47574;52.090;5.244;2023-03-20T06:16:57;101845.0;;;13.52;53.03
61676;BME280;47574;52.090;5.244;2023-03-20T06:18:33;101846.0;;;13.6;53.21
61676;BME280;47574;52.090;5.244;2023-03-20T06:20:10;101846.0;;;13.65;53.23
61676;BME280;47574;52.090;5.244;2023-03-20T06:23:23;101849.0;;;13.81;53.29
61676;BME280;47574;52.090;5.244;2023-03-20T06:24:59;101851.0;;;13.89;52.58
61676;BME280;47574;52.090;5.244;2023-03-20T06:26:35;101855.0;;;13.7;53.13
61676;BME280;47574;52.090;5.244;2023-03-20T06:28:12;101858.0;;;13.72;53.04
61676;BME280;47574;52.090;5.244;2023-03-20T06:31:24;101855.0;;;13.37;53.53
61676;BME280;47574;52.090;5.244;2023-03-20T06:33:00;101860.0;;;13.47;53.61
61676;BME280;47574;52.090;5.244;2023-03-20T06:34:36;101867.0;;;13.64;53.06
61676;BME280;47574;52.090;5.244;2023-03-20T06:37:49;101864.0;;;13.26;54.14
61676;BME280;47574;52.090;5.244;2023-03-20T06:39:26;101864.0;;;13.48;53.73
61676;BME280;47574;52.090;5.244;2023-03-20T06:41:02;101869.0;;;13.68;53.25
61676;BME280;47574;52.090;5.244;2023-03-20T06:44:14;101870.0;;;13.72;53.15
61676;BME280;47574;52.090;5.244;2023-03-20T06:45:50;101869.0;;;13.86;53.24
61676;BME280;47574;52.090;5.244;2023-03-20T06:47:27;101862.0;;;13.44;53.5
61676;BME280;47574;52.090;5.244;2023-03-20T06:49:03;101866.0;;;13.52;53.56
61676;BME280;47574;52.090;5.244;2023-03-20T06:52:18;101871.0;;;13.63;53.68
61676;BME280;47574;52.090;5.244;2023-03-20T06:53:55;101866.0;;;13.43;53.7
61676;BME280;47574;52.090;5.244;2023-03-20T06:55:31;101871.0;;;13.48;53.43
61676;BME280;47574;52.090;5.244;2023-03-20T06:58:43;101871.0;;;13.47;53.51
61676;BME280;47574;52.090;5.244;2023-03-20T07:00:20;101868.0;;;13.53;53.22
61676;BME280;47574;52.090;5.244;2023-03-20T07:01:57;101876.0;;;13.76;53.11
61676;BME280;47574;52.090;5.244;2023-03-20T07:05:09;101872.0;;;13.81;52.94
61676;BME280;47574;52.090;5.244;2023-03-20T07:06:46;101873.0;;;13.6;53.37
61676;BME280;47574;52.090;5.244;2023-03-20T07:08:22;101871.0;;;13.52;53.64
61676;BME280;47574;52.090;5.244;2023-03-20T07:09:58;101874.0;;;13.57;53.46
61676;BME280;47574;52.090;5.244;2023-03-20T07:13:11;101875.0;;;13.7;53.39
61676;BME280;47574;52.090;5.244;2023-03-20T07:14:47;101883.0;;;13.36;53.62
61676;BME280;47574;52.090;5.244;2023-03-20T07:16:24;101883.0;;;13.3;53.93
61676;BME280;47574;52.090;5.244;2023-03-20T07:19:38;101880.0;;;13.48;53.69
61676;BME280;47574;52.090;5.244;2023-03-20T07:21:17;101880.0;;;13.6;53.72
61676;BME280;47574;52.090;5.244;2023-03-20T07:22:54;101880.0;;;13.41;53.83
61676;BME280;47574;52.090;5.244;2023-03-20T07:26:07;101882.0;;;13.55;53.46
61676;BME280;47574;52.090;5.244;2023-03-20T07:27:43;101890.0;;;13.7;53.37
61676;BME280;47574;52.090;5.244;2023-03-20T07:29:20;101887.0;;;13.78;52.9
61676;BME280;47574;52.090;5.244;2023-03-20T07:30:56;101882.0;;;13.65;53.31
61676;BME280;47574;52.090;5.244;2023-03-20T07:34:11;101880.0;;;13.5;53.2
61676;BME280;47574;52.090;5.244;2023-03-20T07:35:51;101884.0;;;13.72;53.1
61676;BME280;47574;52.090;5.244;2023-03-20T07:37:28;101883.0;;;13.53;53.64
61676;BME280;47574;52.090;5.244;2023-03-20T07:40:40;101882.0;;;13.48;53.93
61676;BME280;47574;52.090;5.244;2023-03-20T07:42:16;101881.0;;;13.8;53.12
61676;BME280;47574;52.090;5.244;2023-03-20T07:43:52;101882.0;;;13.29;53.73
61676;BME280;47574;52.090;5.244;2023-03-20T07:47:05;101883.0;;;13.11;54.26
61676;BME280;47574;52.090;5.244;2023-03-20T07:48:41;101881.0;;;13.55;53.61
61676;BME280;47574;52.090;5.244;2023-03-20T07:50:17;101880.0;;;13.62;53.18
61676;BME280;47574;52.090;5.244;2023-03-20T07:51:54;101883.0;;;13.77;53.29
61676;BME280;47574;52.090;5.244;2023-03-20T07:55:07;101881.0;;;13.31;53.7
61676;BME280;47574;52.090;5.244;2023-03-20T07:56:43;101878.0;;;13.63;53.41
61676;BME280;47574;52.090;5.244;2023-03-20T07:58:19;101880.0;;;13.97;52.49
61676;BME280;47574;52.090;5.244;2023-03-20T08:01:32;101880.0;;;13.56;53.23
61676;BME280;47574;52.090;5.244;2023-03-20T08:03:08;101882.0;;;13.79;53.02
61676;BME280;47574;52.090;5.244;2023-03-20T08:04:45;101884.0;;;13.73;52.71
61676;BME280;47574;52.090;5.244;2023-03-20T08:07:57;101886.0;;;13.87;52.83
61676;BME280;47574;52.090;5.244;2023-03-20T08:09:34;101881.0;;;13.82;52.82
61676;BME280;47574;52.090;5.244;2023-03-20T08:11:12;101882.0;;;13.83;52.77
61676;BME280;47574;52.090;5.244;2023-03-20T08:12:49;101880.0;;;13.74;53.12
61676;BME280;47574;52.090;5.244;2023-03-20T08:16:01;101878.0;;;13.87;52.66
61676;BME280;47574;52.090;5.244;2023-03-20T08:17:37;101882.0;;;13.83;52.5
61676;BME280;47574;52.090;5.244;2023-03-20T08:19:17;101880.0;;;13.56;53.28
61676;BME280;47574;52.090;5.244;2023-03-20T08:22:29;101882.0;;;14.0;52.39
61676;BME280;47574;52.090;5.244;2023-03-20T08:24:06;101883.0;;;13.99;52.18
61676;BME280;47574;52.090;5.244;2023-03-20T08:25:46;101881.0;;;13.76;52.58
61676;BME280;47574;52.090;5.244;2023-03-20T08:27:22;101880.0;;;13.36;53.33
61676;BME280;47574;52.090;5.244;2023-03-20T08:30:34;101880.0;;;13.51;53.46
61676;BME280;47574;52.090;5.244;2023-03-20T08:32:10;101878.0;;;13.63;52.83
61676;BME280;47574;52.090;5.244;2023-03-20T08:33:46;101880.0;;;13.64;53.24
61676;BME280;47574;52.090;5.244;2023-03-20T08:37:01;101881.0;;;14.08;52.22
61676;BME280;47574;52.090;5.244;2023-03-20T08:38:39;101882.0;;;14.22;51.87
61676;BME280;47574;52.090;5.244;2023-03-20T08:40:15;101884.0;;;14.02;52.23
61676;BME280;47574;52.090;5.244;2023-03-20T08:43:27;101883.0;;;14.13;51.7
61676;BME280;47574;52.090;5.244;2023-03-20T08:45:04;101884.0;;;13.89;52.94
61676;BME280;47574;52.090;5.244;2023-03-20T08:46:40;101882.0;;;13.84;52.63
61676;BME280;47574;52.090;5.244;2023-03-20T08:48:16;101880.0;;;13.64;53.64
61676;BME280;47574;52.090;5.244;2023-03-20T08:51:28;101880.0;;;13.57;53.57
61676;BME280;47574;52.090;5.244;2023-03-20T08:53:05;101880.0;;;13.39;54.31
61676;BME280;47574;52.090;5.244;2023-03-20T08:54:41;101883.0;;;13.47;54.72
61676;BME280;47574;52.090;5.244;2023-03-20T08:57:54;101884.0;;;13.57;54.98
61676;BME280;47574;52.090;5.244;2023-03-20T08:59:31;101882.0;;;13.5;54.81
61676;BME280;47574;52.090;5.244;2023-03-20T09:01:08;101888.0;;;13.57;54.69
61676;BME280;47574;52.090;5.244;2023-03-20T09:04:21;101888.0;;;13.38;55.48
61676;BME280;47574;52.090;5.244;2023-03-20T09:05:57;101885.0;;;13.64;55.43
61676;BME280;47574;52.090;5.244;2023-03-20T09:07:33;101885.0;;;13.62;54.98
61676;BME280;47574;52.090;5.244;2023-03-20T09:10:46;101886.0;;;13.37;55.65
61676;BME280;47574;52.090;5.244;2023-03-20T09:13:59;101889.0;;;13.6;55.67
61676;BME280;47574;52.090;5.244;2023-03-20T09:15:36;101890.0;;;13.88;55.46
61676;BME280;47574;52.090;5.244;2023-03-20T09:18:48;101895.0;;;13.74;56.11
61676;BME280;47574;52.090;5.244;2023-03-20T09:20:24;101891.0;;;13.59;55.5
61676;BME280;47574;52.090;5.244;2023-03-20T09:22:00;101899.0;;;13.22;56.76
61676;BME280;47574;52.090;5.244;2023-03-20T09:25:13;101896.0;;;13.2;57.25
61676;BME280;47574;52.090;5.244;2023-03-20T09:26:50;101894.0;;;13.08;57.46
61676;BME280;47574;52.090;5.244;2023-03-20T09:28:26;101899.0;;;13.31;57.29
61676;BME280;47574;52.090;5.244;2023-03-20T09:31:39;101897.0;;;13.34;57.31
61676;BME280;47574;52.090;5.244;2023-03-20T09:33:16;101899.0;;;13.78;56.87
61676;BME280;47574;52.090;5.244;2023-03-20T09:34:52;101894.0;;;13.77;56.89
61676;BME280;47574;52.090;5.244;2023-03-20T09:36:28;101884.0;;;13.7;56.66
61676;BME280;47574;52.090;5.244;2023-03-20T09:39:41;101886.0;;;13.69;56.96
61676;BME280;47574;52.090;5.244;2023-03-20T09:41:20;101886.0;;;13.55;56.94
61676;BME280;47574;52.090;5.244;2023-03-20T09:43:03;101892.0;;;13.84;56.12
61676;BME280;47574;52.090;5.244;2023-03-20T09:44:51;101890.0;;;14.18;56.07
61676;BME280;47574;52.090;5.244;2023-03-20T09:48:32;101883.0;;;13.86;56.29
61676;BME280;47574;52.090;5.244;2023-03-20T09:50:18;101883.0;;;13.91;56.06
61676;BME280;47574;52.090;5.244;2023-03-20T09:52:05;101883.0;;;13.78;56.68
61676;BME280;47574;52.090;5.244;2023-03-20T09:53:55;101884.0;;;14.3;56.07
61676;BME280;47574;52.090;5.244;2023-03-20T09:55:37;101885.0;;;14.0;56.11
61676;BME280;47574;52.090;5.244;2023-03-20T09:58:58;101886.0;;;14.14;55.48
61676;BME280;47574;52.090;5.244;2023-03-20T10:00:42;101887.0;;;14.34;55.64
61676;BME280;47574;52.090;5.244;2023-03-20T10:02:24;101880.0;;;14.3;55.09
61676;BME280;47574;52.090;5.244;2023-03-20T10:04:11;101881.0;;;14.16;55.2
61676;BME280;47574;52.090;5.244;2023-03-20T10:05:53;101878.0;;;14.28;55.52
61676;BME280;47574;52.090;5.244;2023-03-20T10:09:14;101878.0;;;14.05;55.29
61676;BME280;47574;52.090;5.244;2023-03-20T10:10:57;101884.0;;;14.38;54.94
61676;BME280;47574;52.090;5.244;2023-03-20T10:12:49;101886.0;;;14.63;55.23
61676;BME280;47574;52.090;5.244;2023-03-20T10:14:35;101886.0;;;14.3;54.71
61676;BME280;47574;52.090;5.244;2023-03-20T10:16:26;101883.0;;;14.33;55.23
61676;BME280;47574;52.090;5.244;2023-03-20T10:20:03;101885.0;;;14.29;55.32
61676;BME280;47574;52.090;5.244;2023-03-20T10:21:47;101884.0;;;14.29;54.89
61676;BME280;47574;52.090;5.244;2023-03-20T10:23:29;101880.0;;;13.96;55.95
61676;BME280;47574;52.090;5.244;2023-03-20T10:25:21;101875.0;;;14.38;55.13
61676;BME280;47574;52.090;5.244;2023-03-20T10:27:04;101877.0;;;14.53;54.91
61676;BME280;47574;52.090;5.244;2023-03-20T10:28:50;101876.0;;;14.34;54.98
61676;BME280;47574;52.090;5.244;2023-03-20T10:32:28;101874.0;;;14.33;55.01
61676;BME280;47574;52.090;5.244;2023-03-20T10:34:23;101868.0;;;14.5;55.0
61676;BME280;47574;52.090;5.244;2023-03-20T10:36:29;101873.0;;;13.91;55.51
61676;BME280;47574;52.090;5.244;2023-03-20T10:38:19;101875.0;;;13.92;55.86
61676;BME280;47574;52.090;5.244;2023-03-20T10:40:14;101871.0;;;14.36;55.32
61676;BME280;47574;52.090;5.244;2023-03-20T10:42:01;101860.0;;;14.23;55.8
61676;BME280;47574;52.090;5.244;2023-03-20T10:43:41;101866.0;;;13.72;57.05
61676;BME280;47574;52.090;5.244;2023-03-20T10:47:11;101870.0;;;14.33;55.71
61676;BME280;47574;52.090;5.244;2023-03-20T10:48:56;101862.0;;;14.44;55.95
61676;BME280;47574;52.090;5.244;2023-03-20T10:50:40;101858.0;;;14.47;55.52
61676;BME280;47574;52.090;5.244;2023-03-20T10:52:21;101861.0;;;14.08;56.01
61676;BME280;47574;52.090;5.244;2023-03-20T10:54:02;101858.0;;;14.45;56.23
61676;BME280;47574;52.090;5.244;2023-03-20T10:57:22;101863.0;;;14.0;55.95
61676;BME280;47574;52.090;5.244;2023-03-20T10:59:03;101863.0;;;13.54;56.94
61676;BME280;47574;52.090;5.244;2023-03-20T11:00:42;101866.0;;;13.81;56.76
61676;BME280;47574;52.090;5.244;2023-03-20T11:02:20;101861.0;;;13.79;56.86
61676;BME280;47574;52.090;5.244;2023-03-20T11:05:36;101866.0;;;14.02;56.61
61676;BME280;47574;52.090;5.244;2023-03-20T11:07:20;101862.0;;;13.67;57.65
61676;BME280;47574;52.090;5.244;2023-03-20T11:09:10;101862.0;;;13.86;57.36
61676;BME280;47574;52.090;5.244;2023-03-20T11:10:57;101865.0;;;13.67;57.34
61676;BME280;47574;52.090;5.244;2023-03-20T11:14:17;101855.0;;;13.94;56.97
61676;BME280;47574;52.090;5.244;2023-03-20T11:15:54;101853.0;;;14.12;56.58
61676;BME280;47574;52.090;5.244;2023-03-20T11:17:32;101856.0;;;13.93;58.17
61676;BME280;47574;52.090;5.244;2023-03-20T11:19:10;101855.0;;;13.84;57.66